Time;durP1;ratioP1;P1;durP2;ratioP2;P2;SDS_P1;SDS_P2;PMS_P1;PMS_P2;Temp;Humidity;BMP_temperature;BMP_pressure;BME280_temperature;BME280_humidity;BME280_pressure;Samples;Min_cycle;Max_cycle;Signal;HPM_P1;HPM_P2
2022/07/27 00:00:54;;;;;;;6.07;2.28;;;;;;;13.60;71.59;101966.56;5023231;28;20386;-56
2022/07/27 00:03:19;;;;;;;4.45;1.60;;;;;;;13.58;71.67;101970.34;5027190;28;20029;-55
2022/07/27 00:05:45;;;;;;;4.47;1.70;;;;;;;13.53;71.80;101976.19;5029148;28;20026;-55
2022/07/27 00:08:10;;;;;;;4.00;1.25;;;;;;;13.44;71.76;101968.31;5026604;28;20037;-54
2022/07/27 00:10:39;;;;;;;4.35;1.83;;;;;;;13.44;72.12;101973.66;5025202;28;20041;-56
2022/07/27 00:13:05;;;;;;;7.97;1.77;;;;;;;13.45;72.48;101978.00;5027948;28;20033;-54
2022/07/27 00:15:31;;;;;;;4.32;1.67;;;;;;;13.40;72.29;101974.97;5032860;28;20078;-55
2022/07/27 00:17:59;;;;;;;4.00;1.55;;;;;;;13.38;72.40;101974.31;5027223;28;20030;-52
2022/07/27 00:20:25;;;;;;;5.77;2.23;;;;;;;13.35;72.79;101978.13;5036665;28;20021;-55
2022/07/27 00:22:50;;;;;;;4.15;2.00;;;;;;;13.27;72.66;101981.59;5029018;28;20037;-54
2022/07/27 00:25:15;;;;;;;5.47;1.90;;;;;;;13.26;73.02;101981.75;5030391;28;20048;-55
2022/07/27 00:27:41;;;;;;;5.32;1.90;;;;;;;13.13;72.86;101976.84;5017082;28;20030;-55
2022/07/27 00:30:06;;;;;;;4.40;1.95;;;;;;;13.05;73.23;101974.13;5025508;28;20037;-54
2022/07/27 00:32:32;;;;;;;6.38;1.80;;;;;;;12.94;73.43;101969.06;5023170;28;20036;-55
2022/07/27 00:34:57;;;;;;;4.30;2.00;;;;;;;12.87;73.36;101971.53;5023918;28;20021;-55
2022/07/27 00:37:22;;;;;;;5.97;2.22;;;;;;;12.83;73.79;101970.16;5021390;28;20025;-53
2022/07/27 00:39:47;;;;;;;5.43;2.13;;;;;;;12.77;73.65;101965.47;5023543;28;20033;-55
2022/07/27 00:42:13;;;;;;;6.05;2.22;;;;;;;12.72;73.88;101967.75;5017183;28;20037;-55
2022/07/27 00:44:38;;;;;;;2.80;2.03;;;;;;;12.71;74.36;101974.91;5026742;28;20552;-54
2022/07/27 00:47:03;;;;;;;5.57;2.00;;;;;;;12.74;74.25;101964.97;5022569;28;20037;-54
2022/07/27 00:49:29;;;;;;;4.30;2.33;;;;;;;12.75;74.92;101974.63;5023361;28;20037;-52
2022/07/27 00:51:54;;;;;;;8.00;2.38;;;;;;;12.71;75.13;101960.75;5019284;28;20127;-52
2022/07/27 00:54:20;;;;;;;6.13;2.45;;;;;;;12.63;74.86;101960.72;5019568;28;20064;-52
2022/07/27 00:56:46;;;;;;;7.47;2.40;;;;;;;12.64;74.90;101965.03;5024674;28;20075;-55
2022/07/27 00:59:13;;;;;;;4.10;1.90;;;;;;;12.58;74.58;101966.50;5023403;28;20449;-55
2022/07/27 01:01:39;;;;;;;5.35;2.15;;;;;;;12.59;74.67;101967.34;5019924;28;20494;-54
2022/07/27 01:04:05;;;;;;;3.58;1.98;;;;;;;12.57;74.56;101970.16;5022912;28;20030;-54
2022/07/27 01:06:33;;;;;;;4.95;2.00;;;;;;;12.59;74.74;101970.00;5020911;28;20040;-53
2022/07/27 01:11:44;;;;;;;3.55;2.22;;;;;;;12.61;74.52;101968.84;5019748;28;20094;-55
2022/07/27 01:14:12;;;;;;;4.80;2.15;;;;;;;12.51;74.69;101968.13;5022899;28;20037;-55
2022/07/27 01:16:38;;;;;;;3.85;1.73;;;;;;;12.45;74.09;101962.59;5021670;28;20650;-56
2022/07/27 01:19:03;;;;;;;3.33;1.77;;;;;;;12.33;74.02;101959.31;5020286;28;20048;-56
2022/07/27 01:21:33;;;;;;;3.53;2.13;;;;;;;12.27;74.28;101965.28;5024029;28;20060;-55
2022/07/27 01:23:58;;;;;;;3.35;2.20;;;;;;;12.16;74.33;101949.53;5017999;28;20045;-54
2022/07/27 01:26:24;;;;;;;7.30;2.47;;;;;;;12.27;74.71;101970.59;5017568;28;20107;-56
2022/07/27 01:28:56;;;;;;;3.92;2.05;;;;;;;12.22;75.00;101976.38;5019361;28;20027;-56
2022/07/27 01:31:21;;;;;;;5.63;2.00;;;;;;;12.16;74.97;101968.19;5022602;28;21112;-56
2022/07/27 01:33:46;;;;;;;5.13;2.05;;;;;;;12.19;74.70;101973.19;5020807;28;20033;-54
2022/07/27 01:36:11;;;;;;;3.95;2.00;;;;;;;12.15;75.15;101966.50;5022942;28;20044;-56
2022/07/27 01:38:37;;;;;;;5.47;2.25;;;;;;;12.17;75.57;101969.84;5022858;28;20026;-55
2022/07/27 01:41:02;;;;;;;4.28;2.25;;;;;;;12.12;75.79;101975.63;5017479;28;20792;-55
2022/07/27 01:43:27;;;;;;;3.88;2.13;;;;;;;12.09;76.12;101974.09;5022866;28;20108;-55
2022/07/27 01:45:52;;;;;;;3.45;2.10;;;;;;;11.98;76.07;101955.69;5020920;28;20026;-55
2022/07/27 01:48:18;;;;;;;4.70;2.40;;;;;;;12.05;76.48;101963.91;5019406;28;20021;-55
2022/07/27 01:50:43;;;;;;;5.55;2.40;;;;;;;12.05;76.69;101958.59;5018081;28;20026;-55
2022/07/27 01:53:08;;;;;;;4.72;1.92;;;;;;;11.98;76.18;101960.19;5021331;28;20037;-55
2022/07/27 01:55:34;;;;;;;7.03;1.90;;;;;;;11.94;76.13;101956.16;5023237;28;20025;-54
2022/07/27 01:57:59;;;;;;;5.28;1.95;;;;;;;11.84;76.07;101948.22;5021620;28;20021;-55
2022/07/27 02:00:24;;;;;;;5.15;2.20;;;;;;;11.78;75.79;101955.00;5017490;28;20395;-55
2022/07/27 02:02:50;;;;;;;6.40;2.30;;;;;;;11.75;75.81;101954.44;5021527;28;20104;-56
2022/07/27 02:05:15;;;;;;;7.78;2.00;;;;;;;11.65;76.17;101946.53;5019324;28;20021;-55
2022/07/27 02:07:41;;;;;;;5.25;2.03;;;;;;;11.61;76.10;101953.16;5019746;28;20022;-55
2022/07/27 02:10:08;;;;;;;5.30;2.00;;;;;;;11.58;76.08;101956.09;5021734;28;20397;-53
2022/07/27 02:12:36;;;;;;;8.15;2.10;;;;;;;11.59;76.54;101965.75;5013172;28;20037;-56
2022/07/27 02:15:06;;;;;;;6.13;2.30;;;;;;;11.55;76.81;101958.19;5024578;28;20024;-54
2022/07/27 02:17:31;;;;;;;3.55;2.00;;;;;;;11.56;76.92;101959.88;5014719;28;20028;-56
2022/07/27 02:19:57;;;;;;;2.72;2.05;;;;;;;11.58;77.12;101963.25;5019045;28;20025;-53
2022/07/27 02:22:22;;;;;;;3.03;1.92;;;;;;;11.55;77.47;101951.06;5016868;28;20021;-56
2022/07/27 02:24:47;;;;;;;3.78;2.10;;;;;;;11.53;77.57;101957.50;5022696;28;20074;-53
2022/07/27 02:27:12;;;;;;;4.88;2.00;;;;;;;11.47;77.73;101953.63;5019643;28;20025;-54
2022/07/27 02:29:38;;;;;;;4.00;2.00;;;;;;;11.44;77.84;101954.78;5014070;28;20034;-55
2022/07/27 02:32:03;;;;;;;3.30;1.92;;;;;;;11.45;78.25;101956.44;5020747;28;20022;-55
2022/07/27 02:34:29;;;;;;;5.20;2.28;;;;;;;11.45;78.10;101951.13;5023960;28;20082;-54
2022/07/27 02:36:54;;;;;;;6.07;2.22;;;;;;;11.45;78.51;101955.59;5029103;28;20025;-54
2022/07/27 02:39:19;;;;;;;3.85;2.50;;;;;;;11.43;78.60;101954.94;5027165;28;20040;-53
2022/07/27 02:41:46;;;;;;;5.63;2.40;;;;;;;11.40;78.47;101945.41;5029440;28;20029;-54
2022/07/27 02:44:13;;;;;;;4.75;1.98;;;;;;;11.34;78.47;101946.03;5027341;28;20105;-54
2022/07/27 02:46:39;;;;;;;4.53;2.05;;;;;;;11.25;78.51;101948.72;5025750;28;20568;-54
2022/07/27 02:49:07;;;;;;;3.10;2.20;;;;;;;11.26;78.58;101953.03;5029425;28;20025;-55
2022/07/27 02:51:32;;;;;;;5.57;2.30;;;;;;;11.22;78.83;101944.53;5026020;28;20032;-54
2022/07/27 02:53:58;;;;;;;6.13;2.30;;;;;;;11.15;78.80;101938.13;5028839;28;20022;-55
2022/07/27 02:56:24;;;;;;;5.00;2.00;;;;;;;11.12;78.92;101935.78;5025710;28;20398;-55
2022/07/27 02:58:49;;;;;;;1.83;1.52;;;;;;;11.10;79.05;101935.09;5027224;28;20021;-54
2022/07/27 03:01:14;;;;;;;2.88;2.05;;;;;;;11.13;78.85;101935.63;5023913;28;20071;-56
2022/07/27 03:03:40;;;;;;;3.05;2.10;;;;;;;11.13;78.98;101932.13;5028001;28;20021;-54
2022/07/27 03:06:06;;;;;;;3.20;1.80;;;;;;;11.10;78.80;101941.25;5026386;28;20021;-51
2022/07/27 03:08:32;;;;;;;3.20;2.10;;;;;;;11.07;78.75;101936.22;5025914;28;20025;-55
2022/07/27 03:10:57;;;;;;;3.85;1.77;;;;;;;11.04;78.41;101946.31;5017294;28;20096;-56
2022/07/27 03:13:23;;;;;;;4.68;1.90;;;;;;;11.02;78.41;101953.59;5019056;28;20025;-56
2022/07/27 03:15:48;;;;;;;3.08;1.85;;;;;;;10.99;78.35;101951.22;5026858;28;20104;-55
2022/07/27 03:18:13;;;;;;;3.65;1.70;;;;;;;10.99;78.17;101959.22;5022419;28;20026;-55
2022/07/27 03:20:39;;;;;;;3.97;1.98;;;;;;;10.93;78.37;101949.97;5024138;28;20029;-55
2022/07/27 03:23:04;;;;;;;4.68;1.90;;;;;;;10.95;78.10;101957.81;5020797;28;20053;-55
2022/07/27 03:25:29;;;;;;;2.55;1.70;;;;;;;10.89;78.23;101948.59;5020457;28;20037;-56
2022/07/27 03:27:54;;;;;;;3.25;1.80;;;;;;;10.95;78.41;101957.81;5025520;28;20033;-55
2022/07/27 03:30:20;;;;;;;4.07;1.75;;;;;;;10.94;78.44;101958.78;5017633;28;20942;-55
2022/07/27 03:32:47;;;;;;;3.95;1.98;;;;;;;10.84;79.53;101949.03;5023701;28;20017;-55
2022/07/27 03:35:14;;;;;;;3.40;2.10;;;;;;;10.84;79.44;101950.84;5019880;28;20983;-54
2022/07/27 03:37:39;;;;;;;4.15;2.40;;;;;;;10.77;79.69;101955.06;5018705;28;20528;-55
2022/07/27 03:40:05;;;;;;;3.58;2.00;;;;;;;10.72;79.92;101952.84;5028380;28;20053;-55
2022/07/27 03:42:30;;;;;;;3.80;2.05;;;;;;;10.74;80.60;101956.22;5027336;28;20020;-55
2022/07/27 03:44:55;;;;;;;6.18;2.00;;;;;;;10.76;80.59;101954.25;5028885;28;20537;-55
2022/07/27 03:47:21;;;;;;;4.35;2.00;;;;;;;10.73;80.49;101954.53;5019235;28;20044;-53
2022/07/27 03:49:46;;;;;;;2.90;2.00;;;;;;;10.73;80.70;101953.69;5020389;28;20506;-55
2022/07/27 03:52:12;;;;;;;2.70;1.88;;;;;;;10.73;80.32;101959.00;5022450;28;20044;-54
2022/07/27 03:54:37;;;;;;;3.22;1.90;;;;;;;10.72;80.66;101960.84;5020026;28;20017;-55
2022/07/27 03:57:03;;;;;;;2.55;1.80;;;;;;;10.73;80.37;101953.69;5024788;28;20047;-55
2022/07/27 03:59:28;;;;;;;8.35;1.95;;;;;;;10.74;80.66;101948.25;5022117;28;20033;-54
2022/07/27 04:01:54;;;;;;;3.40;2.00;;;;;;;10.73;80.46;101953.69;5023705;28;20594;-56
2022/07/27 04:04:19;;;;;;;7.35;2.33;;;;;;;10.72;80.42;101958.19;5021775;28;20021;-55
2022/07/27 04:06:44;;;;;;;5.68;2.10;;;;;;;10.72;80.48;101955.50;5024112;28;20090;-55
2022/07/27 04:09:09;;;;;;;3.67;1.85;;;;;;;10.75;80.42;101968.50;5024709;28;20013;-55
2022/07/27 04:11:36;;;;;;;3.33;1.95;;;;;;;10.77;80.80;101961.22;5025894;28;20030;-54
2022/07/27 04:14:01;;;;;;;5.20;2.10;;;;;;;10.78;80.55;101964.72;5026394;28;20018;-54
2022/07/27 04:16:26;;;;;;;3.40;2.25;;;;;;;10.84;80.82;101966.78;5021835;28;20029;-54
2022/07/27 04:18:52;;;;;;;5.85;2.30;;;;;;;10.90;80.99;101968.03;5026161;28;20022;-54
2022/07/27 04:21:17;;;;;;;5.25;2.40;;;;;;;10.97;81.23;101971.78;5020836;28;20644;-55
2022/07/27 04:23:42;;;;;;;5.78;2.42;;;;;;;10.99;81.32;101968.03;5023177;28;20026;-54
2022/07/27 04:26:08;;;;;;;4.57;2.08;;;;;;;11.04;81.29;101972.91;5020920;28;20098;-51
2022/07/27 04:28:33;;;;;;;4.32;2.40;;;;;;;11.06;81.41;101974.41;5021543;28;20030;-55
2022/07/27 04:30:58;;;;;;;5.05;2.50;;;;;;;11.11;81.22;101972.16;5021434;28;20022;-55
2022/07/27 04:33:24;;;;;;;5.65;2.47;;;;;;;11.15;81.36;101970.88;5025226;28;20522;-54
2022/07/27 04:35:49;;;;;;;3.88;2.30;;;;;;;11.17;81.82;101970.72;5024511;28;20096;-52
2022/07/27 04:38:14;;;;;;;4.05;2.13;;;;;;;11.18;81.38;101969.75;5028946;28;20119;-54
2022/07/27 04:40:39;;;;;;;5.75;2.40;;;;;;;11.09;81.27;101966.16;5020914;28;20076;-53
2022/07/27 04:43:05;;;;;;;7.22;3.35;;;;;;;11.07;80.91;101976.09;5022542;28;20028;-55
2022/07/27 04:45:31;;;;;;;4.85;2.85;;;;;;;11.07;81.29;101968.13;5021511;28;20025;-55
2022/07/27 04:47:57;;;;;;;5.28;3.00;;;;;;;11.13;81.75;101975.50;5028199;28;20529;-56
2022/07/27 04:50:22;;;;;;;6.35;2.80;;;;;;;11.17;82.07;101982.19;5022857;28;20578;-54
2022/07/27 04:52:48;;;;;;;7.25;3.25;;;;;;;11.25;82.14;101981.47;5023078;28;20037;-55
2022/07/27 04:55:13;;;;;;;7.68;3.70;;;;;;;11.26;82.47;101980.47;5022382;28;20021;-54
2022/07/27 04:57:41;;;;;;;9.10;3.92;;;;;;;11.31;82.39;101980.91;5026798;28;20391;-55
2022/07/27 05:00:08;;;;;;;6.43;3.17;;;;;;;11.26;82.35;101975.16;5022377;28;20488;-56
2022/07/27 05:02:38;;;;;;;5.40;3.00;;;;;;;11.22;82.62;101984.41;5018905;28;20036;-56
2022/07/27 05:05:03;;;;;;;8.68;3.20;;;;;;;11.26;82.53;101982.28;5032965;28;20037;-54
2022/07/27 05:07:29;;;;;;;5.15;3.03;;;;;;;11.20;82.84;101981.06;5027885;28;20037;-55
2022/07/27 05:09:54;;;;;;;5.70;3.20;;;;;;;11.30;82.90;101989.03;5027630;28;20053;-56
2022/07/27 05:12:19;;;;;;;6.68;3.60;;;;;;;11.32;83.14;101992.38;5022142;28;20511;-55
2022/07/27 05:14:44;;;;;;;6.05;3.40;;;;;;;11.37;83.59;101984.78;5021276;28;20055;-55
2022/07/27 05:17:10;;;;;;;8.32;4.20;;;;;;;11.48;83.76;101992.56;5029286;28;20075;-54
2022/07/27 05:19:35;;;;;;;6.65;3.20;;;;;;;11.53;84.16;102002.75;5022362;28;20111;-56
2022/07/27 05:22:00;;;;;;;6.13;3.88;;;;;;;11.54;84.27;101985.78;5020107;28;20056;-55
2022/07/27 05:24:26;;;;;;;9.77;3.97;;;;;;;11.65;84.07;101993.59;5028076;28;20139;-55
2022/07/27 05:26:51;;;;;;;6.20;3.88;;;;;;;11.64;84.11;101999.91;5024905;28;20511;-55
2022/07/27 05:29:17;;;;;;;6.45;4.20;;;;;;;11.73;84.84;102001.66;5032065;28;20559;-55
2022/07/27 05:31:42;;;;;;;6.72;4.15;;;;;;;11.84;84.83;102005.94;5029572;28;20026;-56
2022/07/27 05:34:08;;;;;;;7.78;3.70;;;;;;;11.90;85.56;102014.19;5035334;28;20380;-56
2022/07/27 05:36:33;;;;;;;7.20;4.30;;;;;;;11.97;85.59;102004.63;5030246;28;20495;-56
2022/07/27 05:38:58;;;;;;;7.22;4.00;;;;;;;12.08;85.55;102011.53;5020385;28;20077;-56
2022/07/27 05:41:25;;;;;;;10.07;4.65;;;;;;;12.17;85.58;102015.13;5026000;28;20526;-56
2022/07/27 05:43:53;;;;;;;7.43;4.63;;;;;;;12.25;85.97;102012.53;5017691;28;20068;-55
2022/07/27 05:46:18;;;;;;;10.70;4.70;;;;;;;12.36;86.57;102013.13;5025722;28;20033;-53
2022/07/27 05:48:43;;;;;;;11.98;4.97;;;;;;;12.43;86.34;102008.00;5030978;28;20059;-55
2022/07/27 05:51:09;;;;;;;13.68;4.55;;;;;;;12.55;86.28;102009.47;5026617;28;20027;-55
2022/07/27 05:53:34;;;;;;;10.35;4.82;;;;;;;12.62;86.34;102010.50;5025693;28;20033;-55
2022/07/27 05:55:59;;;;;;;8.23;5.03;;;;;;;12.76;86.66;102010.94;5025638;28;20037;-56
2022/07/27 05:58:28;;;;;;;10.32;4.95;;;;;;;12.84;86.41;102008.31;5026380;28;20026;-56
2022/07/27 06:00:53;;;;;;;8.13;5.13;;;;;;;12.88;86.49;102002.53;5027191;28;20071;-54
2022/07/27 06:03:19;;;;;;;6.82;4.45;;;;;;;13.05;86.30;102011.47;5021695;28;20678;-54
2022/07/27 06:05:44;;;;;;;9.07;4.97;;;;;;;13.20;86.63;102014.41;5033104;28;20136;-53
2022/07/27 06:08:09;;;;;;;7.50;4.50;;;;;;;13.29;86.14;102022.28;5024673;28;20503;-55
2022/07/27 06:10:39;;;;;;;12.75;4.32;;;;;;;13.36;86.20;102022.50;5011469;28;20041;-55
2022/07/27 06:13:06;;;;;;;10.48;4.10;;;;;;;13.47;85.90;102024.88;5022934;28;20049;-54
2022/07/27 06:15:31;;;;;;;7.80;3.65;;;;;;;13.63;85.24;102030.28;5035522;28;20104;-54
2022/07/27 06:17:57;;;;;;;8.73;3.33;;;;;;;13.74;84.75;102030.97;5031282;28;20223;-55
2022/07/27 06:20:23;;;;;;;7.78;3.08;;;;;;;13.89;84.36;102035.53;5028127;28;20029;-55
2022/07/27 06:22:54;;;;;;;8.57;2.50;;;;;;;14.04;83.78;102034.91;5028716;28;20030;-54
2022/07/27 06:25:21;;;;;;;3.85;1.77;;;;;;;14.09;82.72;102020.03;5031657;28;20013;-52
2022/07/27 06:27:46;;;;;;;7.10;2.13;;;;;;;14.21;82.33;102015.22;5031618;28;20536;-55
2022/07/27 06:30:14;;;;;;;6.75;1.90;;;;;;;14.41;82.08;102023.75;5034610;28;20025;-54
2022/07/27 06:32:39;;;;;;;7.60;2.33;;;;;;;14.44;81.58;102032.28;5028919;28;20143;-55
2022/07/27 06:35:05;;;;;;;7.78;1.90;;;;;;;14.56;81.22;102033.66;5017239;28;20038;-54
2022/07/27 06:37:31;;;;;;;4.68;1.63;;;;;;;14.66;80.66;102019.25;5019180;28;20033;-54
2022/07/27 06:39:58;;;;;;;10.65;1.98;;;;;;;14.75;79.57;102020.94;5022106;28;20037;-56
2022/07/27 06:42:23;;;;;;;4.00;1.55;;;;;;;14.92;79.36;102029.75;5025761;28;20030;-55
2022/07/27 06:44:49;;;;;;;4.90;1.50;;;;;;;14.94;78.82;102030.41;5019799;28;20118;-55
2022/07/27 06:47:14;;;;;;;6.95;1.60;;;;;;;15.03;78.27;102027.53;5021154;28;20030;-53
2022/07/27 06:49:39;;;;;;;6.40;1.45;;;;;;;15.13;77.62;102027.38;5027305;28;20026;-55
2022/07/27 06:52:06;;;;;;;10.40;1.70;;;;;;;15.24;77.19;102032.34;5025475;28;20025;-54
2022/07/27 06:54:32;;;;;;;6.47;1.50;;;;;;;15.37;77.25;102037.19;5032970;28;20025;-53
2022/07/27 06:56:58;;;;;;;4.57;1.35;;;;;;;15.46;76.95;102028.09;5020434;28;20064;-56
2022/07/27 06:59:23;;;;;;;6.57;1.92;;;;;;;15.69;76.27;102033.56;5023459;28;20534;-56
2022/07/27 07:01:48;;;;;;;7.68;2.30;;;;;;;15.80;76.34;102027.81;5025132;28;20029;-54
2022/07/27 07:04:14;;;;;;;7.53;1.90;;;;;;;15.87;75.57;102025.25;5030901;28;20095;-56
2022/07/27 07:06:39;;;;;;;4.97;1.75;;;;;;;16.02;75.38;102036.91;5017933;28;20115;-56
2022/07/27 07:09:05;;;;;;;8.75;1.77;;;;;;;16.04;74.45;102024.16;5024752;28;20434;-55
2022/07/27 07:11:30;;;;;;;6.05;1.33;;;;;;;16.21;73.82;102032.94;5023486;28;20047;-54
2022/07/27 07:13:55;;;;;;;4.93;1.50;;;;;;;16.39;73.84;102036.13;5032028;28;20151;-55
2022/07/27 07:16:20;;;;;;;4.95;1.58;;;;;;;16.51;73.54;102040.06;5025495;28;20013;-55
2022/07/27 07:18:46;;;;;;;4.97;1.73;;;;;;;16.60;72.58;102043.50;5035327;28;20021;-55
2022/07/27 07:21:11;;;;;;;4.68;1.65;;;;;;;16.75;72.08;102046.25;5025269;28;20025;-56
2022/07/27 07:23:36;;;;;;;6.78;1.80;;;;;;;16.92;71.77;102042.41;5025539;28;20037;-55
2022/07/27 07:26:02;;;;;;;4.38;1.50;;;;;;;16.96;71.81;102036.47;5034514;28;20111;-56
2022/07/27 07:28:27;;;;;;;9.95;1.60;;;;;;;17.15;71.19;102047.72;5032637;28;20036;-57
2022/07/27 07:30:52;;;;;;;6.43;1.52;;;;;;;17.27;70.61;102049.72;5033036;28;20018;-55
2022/07/27 07:33:17;;;;;;;3.50;1.55;;;;;;;17.26;70.32;102053.44;5027840;28;20108;-55
2022/07/27 07:35:43;;;;;;;6.70;1.42;;;;;;;17.29;69.09;102050.38;5025842;28;20022;-55
2022/07/27 07:38:08;;;;;;;5.50;1.35;;;;;;;17.28;68.45;102051.41;5037933;28;20022;-56
2022/07/27 07:40:33;;;;;;;7.32;1.75;;;;;;;17.36;68.34;102055.88;5035416;28;20094;-56
2022/07/27 07:43:02;;;;;;;4.88;1.40;;;;;;;17.42;68.23;102057.81;5028751;28;20031;-54
2022/07/27 07:45:30;;;;;;;7.80;1.63;;;;;;;17.54;68.39;102060.84;5032312;28;20479;-55
2022/07/27 07:47:56;;;;;;;5.35;1.40;;;;;;;17.57;67.79;102061.28;5031863;28;20029;-55
2022/07/27 07:50:24;;;;;;;8.25;1.45;;;;;;;17.63;67.33;102057.84;5031494;28;20317;-55
2022/07/27 07:52:51;;;;;;;8.30;2.25;;;;;;;17.67;66.70;102070.94;5036904;28;20021;-55
2022/07/27 07:55:25;;;;;;;8.10;1.83;;;;;;;17.67;65.58;102068.25;5029260;28;20108;-54
2022/07/27 07:57:50;;;;;;;5.50;1.40;;;;;;;17.68;65.23;102064.59;5031803;28;20013;-56
2022/07/27 08:00:17;;;;;;;4.38;1.33;;;;;;;17.67;64.87;102057.50;5033055;28;20026;-55
2022/07/27 08:02:53;;;;;;;3.20;1.27;;;;;;;17.71;64.76;102058.81;5033184;28;20029;-55
2022/07/27 08:05:19;;;;;;;4.88;1.20;;;;;;;17.73;64.71;102064.84;5046684;28;20154;-53
2022/07/27 08:07:45;;;;;;;5.18;1.67;;;;;;;17.70;63.59;102057.16;5032630;28;20095;-55
2022/07/27 08:10:12;;;;;;;8.90;1.33;;;;;;;17.73;63.84;102064.84;5036348;28;20100;-56
2022/07/27 08:12:39;;;;;;;6.10;1.50;;;;;;;17.82;63.20;102066.41;5034236;28;20577;-55
2022/07/27 08:15:06;;;;;;;8.00;1.30;;;;;;;17.91;63.05;102070.63;5035084;28;20022;-55
2022/07/27 08:17:31;;;;;;;5.75;1.20;;;;;;;17.90;62.15;102079.72;5035498;28;20017;-56
2022/07/27 08:19:56;;;;;;;7.55;1.33;;;;;;;17.83;62.06;102063.50;5031323;28;20524;-56
2022/07/27 08:22:22;;;;;;;5.50;1.27;;;;;;;17.89;60.85;102070.00;5025191;28;20079;-56
2022/07/27 08:24:48;;;;;;;6.32;1.15;;;;;;;17.94;61.07;102067.59;5023171;28;20068;-55
2022/07/27 08:27:13;;;;;;;5.15;1.00;;;;;;;18.00;61.43;102069.50;5034373;28;20510;-55
2022/07/27 08:29:39;;;;;;;4.82;1.20;;;;;;;17.96;61.01;102068.22;5032307;28;20033;-53
2022/07/27 08:32:04;;;;;;;3.80;1.48;;;;;;;17.91;60.21;102066.09;5026867;28;20051;-53
2022/07/27 08:34:30;;;;;;;8.23;1.35;;;;;;;17.97;60.21;102069.91;5025514;28;20395;-53
2022/07/27 08:36:55;;;;;;;3.20;1.27;;;;;;;18.13;60.69;102066.97;5035553;28;20020;-56
2022/07/27 08:39:20;;;;;;;3.72;1.00;;;;;;;18.23;59.16;102070.19;5024745;28;20056;-56
2022/07/27 08:41:46;;;;;;;2.53;0.82;;;;;;;18.34;58.03;102076.91;5032382;28;20032;-56
2022/07/27 08:44:13;;;;;;;5.43;1.10;;;;;;;18.46;57.97;102069.97;5027527;28;20028;-53
2022/07/27 08:46:39;;;;;;;5.47;1.20;;;;;;;18.54;56.96;102064.50;5036769;28;20022;-55
2022/07/27 08:49:06;;;;;;;8.68;0.93;;;;;;;18.67;55.69;102055.72;5019330;28;20079;-55
2022/07/27 08:51:31;;;;;;;5.90;1.00;;;;;;;18.79;55.89;102058.72;5020946;28;20497;-56
2022/07/27 08:53:57;;;;;;;4.50;1.00;;;;;;;18.96;55.69;102054.72;5026394;28;20014;-54
2022/07/27 08:56:22;;;;;;;2.67;1.00;;;;;;;18.99;55.68;102058.88;5027170;28;20479;-56
2022/07/27 08:58:48;;;;;;;6.55;1.27;;;;;;;19.05;54.82;102058.91;5032341;28;20050;-56
2022/07/27 09:01:13;;;;;;;6.28;1.50;;;;;;;19.12;54.13;102061.66;5032426;28;20540;-56
2022/07/27 09:03:38;;;;;;;5.22;1.10;;;;;;;19.07;53.80;102062.22;5030027;28;20025;-56
2022/07/27 09:06:04;;;;;;;10.23;1.30;;;;;;;19.07;53.66;102070.31;5031035;28;20026;-55
2022/07/27 09:08:30;;;;;;;3.15;1.10;;;;;;;19.22;54.22;102067.53;5031650;28;20037;-56
2022/07/27 09:10:56;;;;;;;3.55;1.10;;;;;;;19.42;53.94;102071.19;5035445;28;20052;-56
2022/07/27 09:13:30;;;;;;;4.45;1.10;;;;;;;19.44;53.51;102071.81;5031807;28;20486;-56
2022/07/27 09:15:58;;;;;;;5.90;0.90;;;;;;;19.69;53.22;102071.34;5035178;28;20048;-57
2022/07/27 09:18:26;;;;;;;4.32;1.20;;;;;;;19.76;53.00;102070.34;5031543;28;20511;-55
2022/07/27 09:21:11;;;;;;;4.93;1.10;;;;;;;20.12;53.25;102071.91;5026710;28;20036;-55
2022/07/27 09:23:38;;;;;;;3.78;1.00;;;;;;;20.40;52.43;102074.47;5027727;28;20075;-57
2022/07/27 09:26:25;;;;;;;4.47;1.25;;;;;;;20.60;51.40;102067.25;5030926;28;20482;-56
2022/07/27 09:29:09;;;;;;;3.88;1.10;;;;;;;20.81;51.56;102073.44;5028121;28;20053;-56
2022/07/27 09:31:46;;;;;;;6.43;1.30;;;;;;;21.06;51.47;102073.66;5022569;28;20483;-56
2022/07/27 09:34:24;;;;;;;3.58;1.05;;;;;;;21.17;50.91;102065.75;5024019;28;20454;-56
2022/07/27 09:36:52;;;;;;;4.35;0.90;;;;;;;20.99;49.29;102071.78;5024641;28;20168;-56
2022/07/27 09:39:23;;;;;;;4.50;1.20;;;;;;;21.04;48.42;102063.88;5028803;28;20395;-56
2022/07/27 09:41:58;;;;;;;5.38;1.05;;;;;;;21.07;47.75;102065.31;5031703;28;20486;-55
2022/07/27 09:44:41;;;;;;;5.22;1.13;;;;;;;21.06;47.88;102055.56;5030632;28;20076;-56
2022/07/27 09:47:28;;;;;;;4.93;1.30;;;;;;;21.23;48.27;102061.38;5020207;28;20025;-56
2022/07/27 09:50:18;;;;;;;2.58;1.00;;;;;;;21.41;47.97;102061.56;5027253;28;20525;-56
2022/07/27 09:52:44;;;;;;;3.70;1.10;;;;;;;21.47;47.56;102063.41;5013590;28;20039;-56
2022/07/27 09:55:10;;;;;;;4.68;1.48;;;;;;;21.74;47.89;102061.44;5029162;28;20087;-56
2022/07/27 09:57:56;;;;;;;3.63;1.20;;;;;;;22.08;47.98;102060.25;5021884;28;20550;-55
2022/07/27 10:00:23;;;;;;;3.97;1.40;;;;;;;22.22;47.68;102069.09;5024478;28;20035;-56
2022/07/27 10:02:51;;;;;;;4.40;1.40;;;;;;;21.92;45.78;102058.84;5029972;28;20017;-55
2022/07/27 10:05:20;;;;;;;6.07;1.23;;;;;;;22.34;47.34;102061.13;5028367;28;20057;-54
2022/07/27 10:07:45;;;;;;;3.85;1.27;;;;;;;22.15;45.97;102061.03;5026902;28;20071;-56
2022/07/27 10:10:13;;;;;;;5.70;1.35;;;;;;;22.05;45.71;102059.88;5032272;28;20017;-56
2022/07/27 10:12:40;;;;;;;3.72;1.17;;;;;;;22.45;46.76;102063.13;5022912;28;20091;-53
2022/07/27 10:15:06;;;;;;;3.33;1.10;;;;;;;22.31;46.89;102069.69;5022208;28;20067;-57
2022/07/27 10:17:32;;;;;;;6.00;1.30;;;;;;;21.79;46.06;102066.19;5032962;28;20020;-55
2022/07/27 10:19:58;;;;;;;6.70;1.10;;;;;;;21.25;46.43;102054.75;5026787;28;20033;-56
2022/07/27 10:22:50;;;;;;;3.03;1.00;;;;;;;20.87;47.13;102064.53;5023952;28;20033;-55
2022/07/27 10:25:16;;;;;;;2.47;1.25;;;;;;;20.24;47.24;102059.50;5024359;28;20523;-56
2022/07/27 10:27:45;;;;;;;4.35;1.23;;;;;;;19.92;47.73;102063.72;5025680;28;20029;-55
2022/07/27 10:30:13;;;;;;;5.47;1.13;;;;;;;19.71;48.48;102063.88;5020956;28;20056;-55
2022/07/27 10:32:42;;;;;;;4.70;1.52;;;;;;;19.63;48.47;102064.03;5028981;28;20071;-55
2022/07/27 10:35:31;;;;;;;3.13;1.02;;;;;;;19.41;47.56;102064.13;5025602;28;20132;-55
2022/07/27 10:38:16;;;;;;;2.75;1.20;;;;;;;19.24;47.96;102060.06;5017309;28;20021;-55
2022/07/27 10:40:43;;;;;;;4.05;1.20;;;;;;;19.29;48.26;102054.09;5027778;28;20026;-55
2022/07/27 10:43:18;;;;;;;8.70;1.10;;;;;;;19.26;47.72;102058.00;5022036;28;20099;-57
2022/07/27 10:45:46;;;;;;;3.03;1.30;;;;;;;19.02;47.41;102058.47;5023411;28;20492;-56
2022/07/27 10:48:36;;;;;;;3.85;1.10;;;;;;;19.03;47.68;102055.56;5028665;28;20104;-56
2022/07/27 10:51:02;;;;;;;5.22;1.27;;;;;;;18.96;47.56;102054.72;5021921;28;20087;-56
2022/07/27 10:53:36;;;;;;;3.00;1.00;;;;;;;18.87;47.24;102056.72;5019849;28;20120;-56
2022/07/27 10:56:02;;;;;;;3.70;1.17;;;;;;;18.84;47.55;102054.44;5017844;28;20072;-56
2022/07/27 10:58:27;;;;;;;4.70;1.10;;;;;;;18.87;47.75;102053.19;5023030;28;20458;-56
2022/07/27 11:00:52;;;;;;;2.63;1.10;;;;;;;18.91;48.40;102049.09;5023638;28;20025;-54
2022/07/27 11:03:34;;;;;;;4.35;1.00;;;;;;;19.14;49.09;102040.75;5023905;28;20048;-56
2022/07/27 11:06:04;;;;;;;5.10;1.00;;;;;;;19.23;49.19;102038.72;5020511;28;20040;-54
2022/07/27 11:08:39;;;;;;;4.72;1.02;;;;;;;19.35;48.49;102037.97;5028417;28;20029;-55
2022/07/27 11:11:06;;;;;;;4.15;1.00;;;;;;;19.47;48.82;102035.53;5032038;28;20113;-54
2022/07/27 11:13:31;;;;;;;4.70;1.30;;;;;;;19.48;48.53;102027.25;5026443;28;20509;-57
2022/07/27 11:16:00;;;;;;;2.40;0.95;;;;;;;19.53;48.26;102036.59;5027170;28;20534;-55
2022/07/27 11:18:29;;;;;;;4.90;1.10;;;;;;;19.69;47.52;102033.59;5021826;28;20021;-57
2022/07/27 11:21:16;;;;;;;4.28;1.05;;;;;;;19.86;46.47;102028.66;5015650;28;21051;-56
2022/07/27 11:23:43;;;;;;;5.55;1.10;;;;;;;19.90;45.72;102030.75;5024755;28;20221;-56
2022/07/27 11:26:09;;;;;;;4.63;1.10;;;;;;;20.24;46.42;102021.72;5034433;28;20336;-57